Time;durP1;ratioP1;P1;durP2;ratioP2;P2;SDS_P1;SDS_P2;PMS_P1;PMS_P2;Temp;Humidity;BMP_temperature;BMP_pressure;BME280_temperature;BME280_humidity;BME280_pressure;Samples;Min_cycle;Max_cycle;Signal;HPM_P1;HPM_P2
2022/06/04 00:00:48;;;;;;;4.78;1.98;;;18.20;91.40;;;;;;5030675;28;20271;-67
2022/06/04 00:03:14;;;;;;;6.75;2.00;;;18.20;91.50;;;;;;5030706;28;20471;-66
2022/06/04 00:05:45;;;;;;;3.35;1.83;;;18.10;91.50;;;;;;5030518;28;20045;-67
2022/06/04 00:08:12;;;;;;;5.10;2.00;;;18.10;91.50;;;;;;5030982;28;20604;-67
2022/06/04 00:16:11;;;;;;;4.43;1.90;;;18.10;91.60;;;;;;5030669;28;20113;-67
2022/06/04 00:18:40;;;;;;;6.47;2.30;;;18.10;91.70;;;;;;5030539;28;20030;-67
2022/06/04 00:21:07;;;;;;;4.65;1.83;;;18.00;91.50;;;;;;5030663;28;20021;-67
2022/06/04 00:23:33;;;;;;;5.70;2.05;;;18.00;91.60;;;;;;5030752;28;20449;-67
2022/06/04 00:26:01;;;;;;;3.38;1.95;;;18.00;91.70;;;;;;5030755;28;20083;-66
2022/06/04 00:28:28;;;;;;;3.97;1.88;;;18.00;91.80;;;;;;5030533;28;20467;-66
2022/06/04 00:30:56;;;;;;;5.43;2.00;;;17.90;91.80;;;;;;5030397;28;20478;-66
2022/06/04 00:33:22;;;;;;;4.07;2.33;;;17.90;91.90;;;;;;5030639;28;20034;-66
2022/06/04 00:35:52;;;;;;;3.67;2.35;;;17.90;92.00;;;;;;5030568;28;20065;-67
2022/06/04 00:38:20;;;;;;;3.65;1.88;;;17.90;92.10;;;;;;5030571;28;20030;-67
2022/06/04 00:41:26;;;;;;;5.97;2.25;;;17.80;92.10;;;;;;5030270;28;20125;-66
2022/06/04 00:44:10;;;;;;;4.32;2.42;;;17.80;92.10;;;;;;4969308;28;20452;-67
2022/06/04 00:47:05;;;;;;;4.18;2.10;;;17.80;92.20;;;;;;5024891;28;20053;-66
2022/06/04 00:49:31;;;;;;;5.85;2.63;;;17.80;92.30;;;;;;5022065;28;20045;-67
2022/06/04 00:51:58;;;;;;;6.68;2.63;;;17.70;92.40;;;;;;5030869;28;20390;-66
2022/06/04 00:54:24;;;;;;;5.28;2.10;;;17.70;92.50;;;;;;5034024;28;20034;-67
2022/06/04 00:57:07;;;;;;;4.13;2.15;;;17.70;92.50;;;;;;5033915;28;20067;-67
2022/06/04 00:59:54;;;;;;;4.70;2.10;;;17.70;92.60;;;;;;5033817;28;20120;-67
2022/06/04 01:02:51;;;;;;;6.50;2.40;;;17.70;92.70;;;;;;5033928;28;20033;-66
2022/06/04 01:05:50;;;;;;;4.55;2.15;;;17.60;92.80;;;;;;5033876;28;20029;-67
2022/06/04 01:08:53;;;;;;;5.20;2.25;;;17.60;92.90;;;;;;5033763;28;20048;-66
2022/06/04 01:11:28;;;;;;;3.22;2.08;;;17.50;93.10;;;;;;5033674;28;20023;-66
2022/06/04 01:14:06;;;;;;;5.15;2.60;;;17.50;93.20;;;;;;5034164;28;20140;-66
2022/06/04 01:16:51;;;;;;;5.70;2.60;;;17.50;93.30;;;;;;5033640;28;20057;-66
2022/06/04 01:19:29;;;;;;;4.85;2.53;;;17.50;93.40;;;;;;5033571;28;20053;-66
2022/06/04 01:22:04;;;;;;;3.83;2.00;;;17.40;93.40;;;;;;5033523;28;20034;-66
2022/06/04 01:24:52;;;;;;;4.65;2.67;;;17.40;93.50;;;;;;5033326;28;20040;-67
2022/06/04 01:27:21;;;;;;;5.88;2.40;;;17.40;93.60;;;;;;5033227;28;20437;-67
2022/06/04 01:29:51;;;;;;;4.63;2.50;;;17.40;93.80;;;;;;5033255;28;20029;-66
2022/06/04 01:32:39;;;;;;;4.43;2.72;;;17.40;93.80;;;;;;5033328;28;20037;-66
2022/06/04 01:35:13;;;;;;;5.00;2.43;;;17.40;93.90;;;;;;5033291;28;20124;-66
2022/06/04 01:37:49;;;;;;;4.22;2.53;;;17.30;93.90;;;;;;5032980;28;20613;-67
2022/06/04 01:43:08;;;;;;;5.05;2.60;;;17.30;94.10;;;;;;5033034;28;20445;-67
2022/06/04 01:45:37;;;;;;;4.47;2.60;;;17.30;94.20;;;;;;5033114;28;20033;-67
2022/06/04 01:48:05;;;;;;;4.60;2.50;;;17.30;94.20;;;;;;5032967;28;20032;-67
2022/06/04 01:50:58;;;;;;;6.10;2.80;;;17.30;94.20;;;;;;5031721;28;20060;-67
2022/06/04 01:53:30;;;;;;;6.38;3.00;;;17.30;94.30;;;;;;5032520;28;20429;-67
2022/06/04 01:56:00;;;;;;;6.43;3.33;;;17.30;94.20;;;;;;5032824;28;20483;-67
2022/06/04 01:58:34;;;;;;;5.05;2.95;;;17.30;94.30;;;;;;5033115;28;20060;-67
2022/06/04 02:01:10;;;;;;;6.30;2.88;;;17.20;94.40;;;;;;5032763;28;20034;-68
2022/06/04 02:03:59;;;;;;;6.55;3.30;;;17.20;94.40;;;;;;5032570;28;20057;-67
2022/06/04 02:06:32;;;;;;;5.50;3.03;;;17.20;94.60;;;;;;5032387;28;20040;-67
2022/06/04 02:09:17;;;;;;;7.88;3.17;;;17.10;94.60;;;;;;5032516;28;20104;-67
2022/06/04 02:11:53;;;;;;;5.70;2.95;;;17.10;94.60;;;;;;5032567;28;20033;-67
2022/06/04 02:14:19;;;;;;;5.97;3.03;;;17.20;94.50;;;;;;5032455;28;20017;-67
2022/06/04 02:16:59;;;;;;;7.70;3.55;;;17.10;94.50;;;;;;5032343;28;20401;-67
2022/06/04 02:19:26;;;;;;;5.82;3.00;;;17.10;94.60;;;;;;5032303;28;20021;-67
2022/06/04 02:21:54;;;;;;;4.15;2.90;;;17.10;94.60;;;;;;5032590;28;20445;-67
2022/06/04 02:24:20;;;;;;;7.18;3.30;;;17.10;94.60;;;;;;5032469;28;20053;-67
2022/06/04 02:26:46;;;;;;;7.05;3.70;;;17.00;94.60;;;;;;5032485;28;20426;-67
2022/06/04 02:29:13;;;;;;;7.15;3.63;;;17.10;94.50;;;;;;5032523;28;20038;-67
2022/06/04 02:32:06;;;;;;;8.27;3.28;;;17.10;94.60;;;;;;5032384;28;20418;-67
2022/06/04 02:34:58;;;;;;;6.68;2.60;;;17.00;94.50;;;;;;5032988;28;20076;-67
2022/06/04 02:37:47;;;;;;;5.15;3.20;;;17.00;94.70;;;;;;5032489;28;20398;-67
2022/06/04 02:41:09;;;;;;;6.57;3.13;;;17.00;95.00;;;;;;5024234;28;20057;-67
2022/06/04 02:43:46;;;;;;;6.78;2.92;;;16.90;94.60;;;;;;4970406;28;20088;-67
2022/06/04 02:46:17;;;;;;;6.65;3.05;;;16.90;94.70;;;;;;5031964;28;20471;-67
2022/06/04 02:48:51;;;;;;;7.70;4.07;;;16.90;94.70;;;;;;5031796;28;20513;-66
2022/06/04 02:51:28;;;;;;;6.97;4.10;;;16.90;94.60;;;;;;5031844;28;20120;-67
2022/06/04 02:53:55;;;;;;;6.63;3.38;;;16.80;94.70;;;;;;5031875;28;20549;-66
2022/06/04 02:56:26;;;;;;;7.57;3.40;;;16.80;94.80;;;;;;5031410;28;20505;-67
2022/06/04 02:58:56;;;;;;;6.32;3.20;;;16.80;94.70;;;;;;5031630;28;20386;-67
2022/06/04 03:01:24;;;;;;;7.55;3.50;;;16.80;94.70;;;;;;5031713;28;20120;-67
2022/06/04 03:03:51;;;;;;;8.00;3.70;;;16.80;94.70;;;;;;5031713;28;20044;-67
2022/06/04 03:06:26;;;;;;;5.68;3.42;;;16.80;94.70;;;;;;5031288;28;20288;-67
2022/06/04 03:08:53;;;;;;;6.80;3.30;;;16.80;94.70;;;;;;5031472;28;20033;-67
2022/06/04 03:11:20;;;;;;;5.70;3.22;;;16.80;94.80;;;;;;5031711;28;20064;-67
2022/06/04 03:13:47;;;;;;;5.75;3.30;;;16.80;94.80;;;;;;5031604;28;20029;-66
2022/06/04 03:16:14;;;;;;;7.00;3.45;;;16.80;94.80;;;;;;5030344;28;20029;-67
2022/06/04 03:18:40;;;;;;;9.25;3.85;;;16.70;94.70;;;;;;5031196;28;20041;-67
2022/06/04 03:21:06;;;;;;;7.72;3.10;;;16.70;94.80;;;;;;5031292;28;20540;-66
2022/06/04 03:23:32;;;;;;;5.78;3.00;;;16.70;94.70;;;;;;5031284;28;20033;-66
2022/06/04 03:25:58;;;;;;;7.40;3.15;;;16.70;94.70;;;;;;5031132;28;20033;-67
2022/06/04 03:28:24;;;;;;;8.43;3.67;;;16.70;94.80;;;;;;5031333;28;20022;-66
2022/06/04 03:30:50;;;;;;;5.63;2.78;;;16.70;94.80;;;;;;5031117;28;20021;-67
2022/06/04 03:33:16;;;;;;;6.25;3.58;;;16.70;94.80;;;;;;5031260;28;20021;-67
2022/06/04 03:35:43;;;;;;;10.10;3.60;;;16.70;94.80;;;;;;5030928;28;20064;-67
2022/06/04 03:38:10;;;;;;;5.20;3.10;;;16.70;94.90;;;;;;5031054;28;20498;-67
2022/06/04 03:40:36;;;;;;;5.70;3.20;;;16.60;94.90;;;;;;5030850;28;20029;-67
2022/06/04 03:43:02;;;;;;;6.43;3.72;;;16.60;95.00;;;;;;5031124;28;20101;-67
2022/06/04 03:45:28;;;;;;;5.15;3.28;;;16.60;95.00;;;;;;5031040;28;20032;-67
2022/06/04 03:47:56;;;;;;;7.57;4.15;;;16.60;95.00;;;;;;5031262;28;20033;-67
2022/06/04 03:50:23;;;;;;;7.93;5.47;;;16.50;95.10;;;;;;5030707;28;20044;-67
2022/06/04 03:52:52;;;;;;;7.18;3.58;;;16.60;95.20;;;;;;5031214;28;20493;-67
2022/06/04 03:55:19;;;;;;;7.97;3.95;;;16.50;95.10;;;;;;5029803;28;20034;-67
2022/06/04 03:57:53;;;;;;;5.13;3.40;;;16.50;95.20;;;;;;5030845;28;20112;-67
2022/06/04 04:00:36;;;;;;;6.13;3.58;;;16.50;95.20;;;;;;5030833;28;20040;-67
2022/06/04 04:03:09;;;;;;;7.75;3.17;;;16.60;95.20;;;;;;5031474;28;20033;-67
2022/06/04 04:05:38;;;;;;;5.78;3.50;;;16.50;95.30;;;;;;5030696;28;20126;-67
2022/06/04 04:08:07;;;;;;;6.53;3.38;;;16.50;95.30;;;;;;5029522;28;20052;-67
2022/06/04 04:10:33;;;;;;;7.68;3.65;;;16.50;95.30;;;;;;5030673;28;20033;-67
2022/06/04 04:13:00;;;;;;;7.30;3.63;;;16.50;95.40;;;;;;5031224;28;20034;-67
2022/06/04 04:15:26;;;;;;;5.57;3.40;;;16.40;95.40;;;;;;5030597;28;20052;-67
2022/06/04 04:17:53;;;;;;;6.43;3.60;;;16.40;95.50;;;;;;5030918;28;20440;-67
2022/06/04 04:20:28;;;;;;;6.55;3.85;;;16.50;95.50;;;;;;5030544;28;20026;-67
2022/06/04 04:22:55;;;;;;;6.60;3.00;;;16.40;95.50;;;;;;5030741;28;20040;-67
2022/06/04 04:25:23;;;;;;;5.32;3.83;;;16.40;95.50;;;;;;5030602;28;20088;-67
2022/06/04 04:27:50;;;;;;;7.32;3.70;;;16.50;95.60;;;;;;5033705;28;20498;-67
2022/06/04 04:30:19;;;;;;;4.03;3.50;;;16.50;95.60;;;;;;5034643;28;20053;-67
2022/06/04 04:32:46;;;;;;;5.47;3.78;;;16.40;95.60;;;;;;5034553;28;20021;-67
2022/06/04 04:35:15;;;;;;;6.50;3.58;;;16.50;95.60;;;;;;5034510;28;20569;-67
2022/06/04 04:37:42;;;;;;;6.20;3.60;;;16.50;95.60;;;;;;5034358;28;20398;-67
2022/06/04 04:40:11;;;;;;;7.32;3.75;;;16.50;95.60;;;;;;5033009;28;20489;-67
2022/06/04 04:42:37;;;;;;;6.25;3.70;;;16.50;95.50;;;;;;5034421;28;20033;-67
2022/06/04 04:45:07;;;;;;;7.65;3.40;;;16.50;95.40;;;;;;5033057;28;20034;-67
2022/06/04 04:47:34;;;;;;;13.48;4.10;;;16.50;95.50;;;;;;5034071;28;20029;-67
2022/06/04 04:50:01;;;;;;;7.93;4.13;;;16.50;95.60;;;;;;5033935;28;20052;-67
2022/06/04 04:52:27;;;;;;;7.63;4.40;;;16.40;95.60;;;;;;5034179;28;20402;-67
2022/06/04 04:54:53;;;;;;;8.15;4.57;;;16.40;95.60;;;;;;5033969;28;20030;-67
2022/06/04 04:57:19;;;;;;;7.18;4.22;;;16.40;95.60;;;;;;5033817;28;20496;-67
2022/06/04 04:59:45;;;;;;;8.10;4.53;;;16.50;95.60;;;;;;5033953;28;20033;-67
2022/06/04 05:02:11;;;;;;;6.82;4.22;;;16.40;95.60;;;;;;5033947;28;20482;-67
2022/06/04 05:04:37;;;;;;;6.03;3.92;;;16.40;95.60;;;;;;5033811;28;20080;-67
2022/06/04 05:07:04;;;;;;;6.15;3.75;;;16.40;95.60;;;;;;5033856;28;20025;-67
2022/06/04 05:09:31;;;;;;;6.47;3.78;;;16.40;95.70;;;;;;5033505;28;20028;-67
2022/06/04 05:11:56;;;;;;;8.88;3.80;;;16.40;95.80;;;;;;5033938;28;20405;-67
2022/06/04 05:14:22;;;;;;;5.18;3.38;;;16.40;95.80;;;;;;5032594;28;20403;-67
2022/06/04 05:16:48;;;;;;;6.10;3.55;;;16.50;95.80;;;;;;5033586;28;20033;-67
2022/06/04 05:19:14;;;;;;;6.57;4.03;;;16.60;95.80;;;;;;5033490;28;20037;-67
2022/06/04 05:21:46;;;;;;;5.70;3.58;;;16.60;95.60;;;;;;5033546;28;20032;-67
2022/06/04 05:24:24;;;;;;;5.05;3.42;;;16.50;95.60;;;;;;5033512;28;20509;-67
2022/06/04 05:26:50;;;;;;;5.50;3.87;;;16.60;95.70;;;;;;5033308;28;20025;-67
2022/06/04 05:29:17;;;;;;;6.65;3.70;;;16.60;95.70;;;;;;5033397;28;20509;-67
2022/06/04 05:31:45;;;;;;;5.53;3.30;;;16.60;95.70;;;;;;5033555;28;20025;-67
2022/06/04 05:34:13;;;;;;;6.15;4.28;;;16.60;95.70;;;;;;5032152;28;20057;-67
2022/06/04 05:36:39;;;;;;;7.60;3.72;;;16.60;95.40;;;;;;5033238;28;20080;-67
2022/06/04 05:39:06;;;;;;;7.28;4.18;;;16.70;95.40;;;;;;5032256;28;20498;-67
2022/06/04 05:41:33;;;;;;;7.28;3.75;;;16.70;95.50;;;;;;5033067;28;20057;-67
2022/06/04 05:43:59;;;;;;;8.27;4.00;;;16.70;95.50;;;;;;5033241;28;20491;-67
2022/06/04 05:46:25;;;;;;;4.72;3.30;;;16.70;95.60;;;;;;5032922;28;20033;-67
2022/06/04 05:48:51;;;;;;;6.97;3.70;;;16.70;95.70;;;;;;5032817;28;20532;-67
2022/06/04 05:51:23;;;;;;;9.07;4.80;;;16.70;95.60;;;;;;5032948;28;20026;-67
2022/06/04 05:53:49;;;;;;;8.93;4.25;;;16.70;95.50;;;;;;5033388;28;20421;-67
2022/06/04 05:56:21;;;;;;;6.03;3.88;;;16.70;95.60;;;;;;5032864;28;20091;-67
2022/06/04 05:58:50;;;;;;;6.47;3.97;;;16.80;95.70;;;;;;5032936;28;20036;-67
2022/06/04 06:01:18;;;;;;;6.20;3.90;;;16.80;95.60;;;;;;5032740;28;20036;-67
2022/06/04 06:03:45;;;;;;;7.53;3.78;;;16.80;95.70;;;;;;5033226;28;20041;-67
2022/06/04 06:06:12;;;;;;;8.18;4.57;;;16.80;95.70;;;;;;5032581;28;20034;-67
2022/06/04 06:08:38;;;;;;;7.03;4.03;;;16.80;95.70;;;;;;5032637;28;20025;-67
2022/06/04 06:11:11;;;;;;;7.65;4.13;;;16.80;95.80;;;;;;5031406;28;20045;-67
2022/06/04 06:13:38;;;;;;;6.20;4.00;;;16.80;95.60;;;;;;5032858;28;20587;-67
2022/06/04 06:16:10;;;;;;;8.52;4.10;;;16.90;95.70;;;;;;5032376;28;20398;-67
2022/06/04 06:18:36;;;;;;;8.32;4.18;;;16.90;95.50;;;;;;5032466;28;20040;-67
2022/06/04 06:21:08;;;;;;;7.82;4.20;;;16.90;95.30;;;;;;5032745;28;20040;-67
2022/06/04 06:23:34;;;;;;;7.35;3.83;;;16.90;95.50;;;;;;5032709;28;20520;-67
2022/06/04 06:26:13;;;;;;;5.45;3.67;;;17.00;95.50;;;;;;5032292;28;20033;-67
2022/06/04 06:28:40;;;;;;;7.55;4.32;;;17.00;95.50;;;;;;5030955;28;20025;-67
2022/06/04 06:31:09;;;;;;;6.80;4.18;;;17.10;95.40;;;;;;5032090;28;20029;-67
2022/06/04 06:33:35;;;;;;;7.68;4.32;;;17.20;95.30;;;;;;5032295;28;20490;-67
2022/06/04 06:36:05;;;;;;;5.72;3.83;;;17.20;95.30;;;;;;5032036;28;20083;-67
2022/06/04 06:38:31;;;;;;;5.63;4.13;;;17.20;95.30;;;;;;5031985;28;20532;-67
2022/06/04 06:40:58;;;;;;;6.78;3.92;;;17.20;95.40;;;;;;5031990;28;20080;-67
2022/06/04 06:43:37;;;;;;;5.70;3.30;;;17.30;95.40;;;;;;5031983;28;20352;-67
2022/06/04 06:46:10;;;;;;;6.35;4.30;;;17.40;95.30;;;;;;5032174;28;20390;-67
2022/06/04 06:48:38;;;;;;;6.05;3.80;;;17.40;95.00;;;;;;5031868;28;20029;-67
2022/06/04 06:51:13;;;;;;;6.85;4.00;;;17.40;95.00;;;;;;5032000;28;20040;-67
2022/06/04 06:53:39;;;;;;;7.97;3.70;;;17.50;94.80;;;;;;5031893;28;20053;-67
2022/06/04 06:56:17;;;;;;;7.18;3.65;;;17.60;94.80;;;;;;5031817;28;20037;-67
2022/06/04 06:58:43;;;;;;;6.18;4.20;;;17.60;94.80;;;;;;5031676;28;20053;-67
2022/06/04 07:01:11;;;;;;;6.10;3.65;;;17.60;94.90;;;;;;5032111;28;20065;-67
2022/06/04 07:03:38;;;;;;;8.30;4.50;;;17.70;94.80;;;;;;5032349;28;20120;-67
2022/06/04 07:06:07;;;;;;;8.73;3.80;;;17.70;94.60;;;;;;5031460;28;20038;-67
2022/06/04 07:08:34;;;;;;;6.63;4.13;;;17.70;94.60;;;;;;5031436;28;20042;-67
2022/06/04 07:11:00;;;;;;;5.82;4.10;;;17.80;94.60;;;;;;5031733;28;20038;-67
2022/06/04 07:13:26;;;;;;;5.70;3.83;;;17.80;94.50;;;;;;5031586;28;20092;-67
2022/06/04 07:15:52;;;;;;;7.10;3.85;;;17.80;94.50;;;;;;5031437;28;20037;-67
2022/06/04 07:18:18;;;;;;;7.80;4.03;;;17.80;94.60;;;;;;5031532;28;20037;-67
2022/06/04 07:20:45;;;;;;;5.75;3.83;;;17.80;94.80;;;;;;5031184;28;20033;-67
2022/06/04 07:23:11;;;;;;;6.68;3.75;;;17.80;94.90;;;;;;5031303;28;20025;-67
2022/06/04 07:25:41;;;;;;;7.10;4.10;;;17.90;95.00;;;;;;5031065;28;20036;-67
2022/06/04 07:28:09;;;;;;;5.55;3.85;;;17.80;94.90;;;;;;5031242;28;20494;-67
2022/06/04 07:30:36;;;;;;;5.55;3.70;;;17.90;94.80;;;;;;5029835;28;20037;-67
2022/06/04 07:33:02;;;;;;;8.10;4.55;;;17.90;94.80;;;;;;5031226;28;20041;-67
2022/06/04 07:35:28;;;;;;;7.07;4.38;;;17.90;94.70;;;;;;5031186;28;20117;-67
2022/06/04 07:37:53;;;;;;;7.65;4.25;;;17.90;94.70;;;;;;5030830;28;20159;-67
2022/06/04 07:40:19;;;;;;;6.05;3.97;;;17.90;94.60;;;;;;5029747;28;20046;-67
2022/06/04 07:42:48;;;;;;;6.75;4.47;;;17.90;94.70;;;;;;5031510;28;20029;-67
2022/06/04 07:45:15;;;;;;;5.70;3.83;;;17.90;94.60;;;;;;5031039;28;20032;-67
2022/06/04 07:47:41;;;;;;;5.93;4.25;;;17.90;94.70;;;;;;5030887;28;20053;-67
2022/06/04 07:50:09;;;;;;;6.93;4.20;;;17.90;94.60;;;;;;5030923;28;20105;-67
2022/06/04 07:52:37;;;;;;;6.75;4.10;;;17.90;94.60;;;;;;5031069;28;20387;-67
2022/06/04 07:55:07;;;;;;;7.35;4.00;;;18.00;94.80;;;;;;5031049;28;20173;-67
2022/06/04 07:57:34;;;;;;;7.35;4.75;;;18.00;94.90;;;;;;5030697;28;20033;-67
2022/06/04 08:00:01;;;;;;;6.53;4.50;;;18.00;94.70;;;;;;5030945;28;20081;-67
2022/06/04 08:02:27;;;;;;;6.47;4.35;;;18.00;94.70;;;;;;5036367;28;20409;-67
2022/06/04 08:04:53;;;;;;;9.98;5.10;;;18.10;94.60;;;;;;5037228;28;20509;-67
2022/06/04 08:07:21;;;;;;;7.53;4.97;;;18.10;94.30;;;;;;5037205;28;20037;-67
2022/06/04 08:09:48;;;;;;;9.40;5.03;;;18.10;94.30;;;;;;5037498;28;20397;-67
2022/06/04 08:12:18;;;;;;;7.25;4.88;;;18.10;94.30;;;;;;5037327;28;20063;-67
2022/06/04 08:14:45;;;;;;;7.97;4.68;;;18.20;94.30;;;;;;5037565;28;20470;-67
2022/06/04 08:17:12;;;;;;;6.10;4.20;;;18.20;94.40;;;;;;5037245;28;20394;-67
2022/06/04 08:19:38;;;;;;;5.97;4.32;;;18.20;94.40;;;;;;5037257;28;20379;-67
2022/06/04 08:22:06;;;;;;;5.90;4.30;;;18.30;94.30;;;;;;5037542;28;20029;-67
2022/06/04 08:24:32;;;;;;;8.98;5.05;;;18.20;94.40;;;;;;5037232;28;20059;-67
2022/06/04 08:27:00;;;;;;;7.43;4.75;;;18.30;94.30;;;;;;5037003;28;20037;-67
2022/06/04 08:29:29;;;;;;;6.95;4.20;;;18.30;94.30;;;;;;5035896;28;20037;-67
2022/06/04 08:31:55;;;;;;;6.05;4.28;;;18.30;94.60;;;;;;5037388;28;20018;-67
2022/06/04 08:34:22;;;;;;;10.40;4.57;;;18.40;94.70;;;;;;5037410;28;20025;-67
2022/06/04 08:36:48;;;;;;;8.15;5.10;;;18.40;94.50;;;;;;5036998;28;20034;-67
2022/06/04 08:39:13;;;;;;;8.45;4.43;;;18.40;94.20;;;;;;5036967;28;20164;-67
2022/06/04 08:41:54;;;;;;;7.93;4.32;;;18.40;94.40;;;;;;5037066;28;20029;-67
2022/06/04 08:44:28;;;;;;;8.57;4.88;;;18.50;94.50;;;;;;5037161;28;20517;-67
2022/06/04 08:47:01;;;;;;;8.10;4.90;;;18.50;94.30;;;;;;5037187;28;20034;-67
2022/06/04 08:49:32;;;;;;;8.10;4.20;;;18.60;93.90;;;;;;5036896;28;20025;-67
2022/06/04 08:52:03;;;;;;;7.80;5.05;;;18.60;94.00;;;;;;5037080;28;20033;-67
2022/06/04 08:57:32;;;;;;;7.25;4.28;;;18.60;94.20;;;;;;5036887;28;20158;-67
2022/06/04 09:00:15;;;;;;;7.15;5.18;;;18.60;94.20;;;;;;5036904;28;20029;-67
2022/06/04 09:03:00;;;;;;;6.45;4.97;;;18.60;94.00;;;;;;5036954;28;20036;-67
2022/06/04 09:05:52;;;;;;;6.13;4.38;;;18.60;94.20;;;;;;5036724;28;20080;-67
2022/06/04 09:08:25;;;;;;;9.18;4.70;;;18.70;94.30;;;;;;5036823;28;20022;-67
2022/06/04 09:10:54;;;;;;;5.93;4.13;;;18.70;94.00;;;;;;5036902;28;20389;-67
2022/06/04 09:13:31;;;;;;;5.63;3.95;;;18.70;93.90;;;;;;5032225;28;20076;-67
2022/06/04 09:16:04;;;;;;;7.65;4.60;;;18.80;94.00;;;;;;5033743;28;20053;-67
2022/06/04 09:18:34;;;;;;;6.55;4.88;;;18.80;93.90;;;;;;5033474;28;20117;-67
2022/06/04 09:21:02;;;;;;;8.15;4.65;;;18.90;93.60;;;;;;5033482;28;20037;-67
2022/06/04 09:23:45;;;;;;;9.60;4.53;;;18.90;93.50;;;;;;5032573;28;20548;-67
2022/06/04 09:26:13;;;;;;;7.65;4.45;;;18.90;93.90;;;;;;5033285;28;20079;-67
2022/06/04 09:28:48;;;;;;;5.95;3.55;;;18.80;93.80;;;;;;5033512;28;20036;-67
2022/06/04 09:31:45;;;;;;;6.85;4.65;;;18.80;94.00;;;;;;5033418;28;20083;-67
2022/06/04 09:34:22;;;;;;;5.60;4.13;;;18.80;94.20;;;;;;5033330;28;20033;-67
2022/06/04 09:36:49;;;;;;;5.60;3.58;;;18.80;94.50;;;;;;5033129;28;20033;-67
2022/06/04 09:39:33;;;;;;;7.00;4.30;;;18.80;94.50;;;;;;5033280;28;20434;-67
2022/06/04 09:42:13;;;;;;;7.28;4.40;;;18.90;94.30;;;;;;5033233;28;20509;-67
2022/06/04 09:45:17;;;;;;;8.43;4.75;;;18.90;94.10;;;;;;5031926;28;20048;-67
2022/06/04 09:47:49;;;;;;;7.30;4.53;;;18.90;94.00;;;;;;5001999;28;20037;-67
2022/06/04 09:50:35;;;;;;;5.00;4.13;;;19.00;93.90;;;;;;5032860;28;20026;-67
2022/06/04 09:53:13;;;;;;;7.38;5.00;;;19.00;93.90;;;;;;5033169;28;20037;-67
2022/06/04 09:55:56;;;;;;;7.45;5.15;;;19.00;93.80;;;;;;5032727;28;20029;-67
2022/06/04 09:58:34;;;;;;;7.95;4.45;;;19.10;93.70;;;;;;5032802;28;20041;-67
2022/06/04 10:01:05;;;;;;;7.35;4.72;;;19.10;93.80;;;;;;5031555;28;20060;-67
2022/06/04 10:03:34;;;;;;;8.73;4.53;;;19.20;93.50;;;;;;5031484;28;20121;-67
2022/06/04 10:06:09;;;;;;;7.72;4.88;;;19.20;93.30;;;;;;5032515;28;20026;-67
2022/06/04 10:11:24;;;;;;;8.00;5.50;;;19.30;93.40;;;;;;5032456;28;20478;-66
2022/06/04 10:13:55;;;;;;;7.40;4.93;;;19.30;93.50;;;;;;5031434;28;20097;-67
2022/06/04 10:16:37;;;;;;;7.70;4.15;;;19.30;93.40;;;;;;5032469;28;20025;-67
2022/06/04 10:19:15;;;;;;;8.90;5.72;;;19.30;93.50;;;;;;5032411;28;20060;-67
2022/06/04 10:21:43;;;;;;;8.27;4.90;;;19.30;93.40;;;;;;5032521;28;20039;-67
2022/06/04 10:24:22;;;;;;;10.77;5.10;;;19.40;93.60;;;;;;5032035;28;20041;-67
2022/06/04 10:27:03;;;;;;;8.43;5.40;;;19.50;93.40;;;;;;5030802;28;20036;-67
2022/06/04 10:29:41;;;;;;;8.25;4.80;;;19.50;93.00;;;;;;5032235;28;20405;-67
2022/06/04 10:32:18;;;;;;;6.75;4.68;;;19.50;93.30;;;;;;5032319;28;20036;-67
2022/06/04 10:34:48;;;;;;;8.15;5.60;;;19.50;93.20;;;;;;5032215;28;20108;-67
2022/06/04 10:37:13;;;;;;;;;;;19.50;93.70;;;;;;5032474;28;20021;-67
2022/06/04 10:39:46;;;;;;;8.27;5.38;;;19.60;93.10;;;;;;5031925;28;20000;-67
2022/06/04 10:42:29;;;;;;;9.65;5.15;;;19.70;92.90;;;;;;5031997;28;20029;-68
2022/06/04 10:45:14;;;;;;;6.53;3.80;;;19.80;93.00;;;;;;5032044;28;20394;-67
2022/06/04 10:47:54;;;;;;;7.82;4.82;;;19.90;93.00;;;;;;5031786;28;20091;-67
2022/06/04 10:51:25;;;;;;;7.75;5.03;;;20.00;92.90;;;;;;5031801;28;20061;-67
2022/06/04 10:53:47;;;;;;;7.13;4.05;;;20.00;92.70;;;;;;5031803;28;20028;-67
2022/06/04 10:56:18;;;;;;;8.05;4.95;;;20.00;92.70;;;;;;5031800;28;20056;-67
2022/06/04 10:58:59;;;;;;;8.00;4.63;;;20.10;92.70;;;;;;5031570;28;20042;-67
2022/06/04 11:01:48;;;;;;;6.45;4.50;;;20.10;92.60;;;;;;5031702;28;20072;-67
2022/06/04 11:04:42;;;;;;;8.25;5.60;;;20.10;92.70;;;;;;5031650;28;20095;-67
2022/06/04 11:07:44;;;;;;;5.78;4.18;;;20.10;92.30;;;;;;5031819;28;20033;-65
2022/06/04 11:10:16;;;;;;;8.00;5.30;;;20.10;92.40;;;;;;5031485;28;20034;-67
2022/06/04 11:12:59;;;;;;;6.57;4.32;;;20.20;92.30;;;;;;5030331;28;20457;-65
2022/06/04 11:15:46;;;;;;;6.78;4.95;;;20.20;92.50;;;;;;5031889;28;20030;-65
2022/06/04 11:18:42;;;;;;;8.02;5.22;;;20.20;92.20;;;;;;5031284;28;20029;-65
2022/06/04 11:21:40;;;;;;;9.50;5.50;;;20.20;92.10;;;;;;5031482;28;20025;-65
2022/06/04 11:24:12;;;;;;;7.47;5.05;;;20.20;92.10;;;;;;5031300;28;20041;-65
2022/06/04 11:26:44;;;;;;;10.32;5.60;;;20.30;91.80;;;;;;5030967;28;20034;-67
2022/06/04 11:29:12;;;;;;;8.23;5.35;;;20.30;91.70;;;;;;5031215;28;20501;-66
2022/06/04 11:32:03;;;;;;;6.65;5.15;;;20.20;91.90;;;;;;5031169;28;20048;-65
2022/06/04 11:34:33;;;;;;;9.27;5.88;;;20.20;91.70;;;;;;4993520;28;20391;-66
2022/06/04 11:37:36;;;;;;;6.18;4.47;;;20.10;92.00;;;;;;5030367;28;20550;-66
2022/06/04 11:40:24;;;;;;;6.22;4.82;;;20.10;92.20;;;;;;5030960;28;20025;-66
2022/06/04 11:42:53;;;;;;;7.53;4.33;;;20.10;92.30;;;;;;5031124;28;20092;-66
2022/06/04 11:45:22;;;;;;;5.43;4.60;;;20.10;92.20;;;;;;5031034;28;20060;-66
2022/06/04 11:48:00;;;;;;;8.18;5.10;;;20.10;92.20;;;;;;5030772;28;20466;-66
2022/06/04 11:50:48;;;;;;;7.82;4.55;;;20.00;92.30;;;;;;5030891;28;20051;-66
2022/06/04 11:53:26;;;;;;;8.55;4.90;;;20.00;92.60;;;;;;5030975;28;20175;-66
2022/06/04 11:56:07;;;;;;;9.18;5.70;;;20.10;92.40;;;;;;5030822;28;20034;-66
2022/06/04 11:58:39;;;;;;;10.32;5.78;;;20.20;92.60;;;;;;5030834;28;20021;-66
2022/06/04 12:01:13;;;;;;;6.40;4.90;;;20.20;92.60;;;;;;5030863;28;20474;-66
2022/06/04 12:03:50;;;;;;;6.55;5.32;;;20.40;92.50;;;;;;5030998;28;20040;-66
2022/06/04 12:06:24;;;;;;;7.35;4.97;;;20.50;92.20;;;;;;5030580;28;20041;-66
2022/06/04 12:09:19;;;;;;;6.93;5.72;;;20.60;91.70;;;;;;5029617;28;20029;-66
2022/06/04 12:12:07;;;;;;;7.88;4.35;;;20.80;91.00;;;;;;5003824;28;20037;-66
2022/06/04 12:14:47;;;;;;;6.68;4.20;;;20.90;91.20;;;;;;5030780;28;20018;-65
2022/06/04 12:17:29;;;;;;;7.72;4.95;;;21.00;90.90;;;;;;5030424;28;20037;-65
2022/06/04 12:26:38;;;;;;;7.38;5.03;;;21.40;90.70;;;;;;5004992;28;20103;-65
2022/06/04 12:29:28;;;;;;;6.30;4.40;;;21.50;90.60;;;;;;5030324;28;20052;-66
2022/06/04 12:31:57;;;;;;;5.82;3.85;;;21.60;90.30;;;;;;5030812;28;20029;-65
2022/06/04 12:34:39;;;;;;;;;;;21.60;89.90;;;;;;5031072;28;20029;-65
2022/06/04 12:37:20;;;;;;;6.85;4.38;;;21.70;89.80;;;;;;5030365;28;19913;-65
2022/06/04 12:39:46;;;;;;;5.47;3.95;;;21.80;89.50;;;;;;5030749;28;20390;-65
2022/06/04 12:42:20;;;;;;;5.60;3.80;;;21.90;89.80;;;;;;5030511;28;20398;-65
2022/06/04 12:45:04;;;;;;;6.25;4.20;;;21.90;89.60;;;;;;5029302;28;20076;-65
2022/06/04 12:47:32;;;;;;;7.00;4.00;;;22.00;89.30;;;;;;5031564;28;20036;-66
2022/06/04 12:50:16;;;;;;;6.78;3.92;;;22.00;88.90;;;;;;5033975;28;20153;-65
2022/06/04 12:52:46;;;;;;;6.72;4.70;;;22.00;88.90;;;;;;5032827;28;20029;-65
2022/06/04 12:55:23;;;;;;;6.00;4.00;;;22.00;88.80;;;;;;5034266;28;20035;-66
2022/06/04 12:58:10;;;;;;;;;;;22.00;88.70;;;;;;5034298;28;20083;-66
2022/06/04 13:00:42;;;;;;;4.55;3.28;;;22.10;89.00;;;;;;5031039;28;19909;-65
2022/06/04 13:03:08;;;;;;;5.20;3.58;;;22.20;88.60;;;;;;5032752;28;20036;-66
2022/06/04 13:05:37;;;;;;;5.03;3.42;;;22.30;87.70;;;;;;5033832;28;20405;-65
2022/06/04 13:08:16;;;;;;;4.65;3.65;;;22.30;88.40;;;;;;5033852;28;20030;-65
2022/06/04 13:10:49;;;;;;;7.38;3.72;;;22.30;88.60;;;;;;5032304;28;20113;-65
2022/06/04 13:13:52;;;;;;;5.32;4.10;;;22.20;89.40;;;;;;5034038;28;20382;-66
2022/06/04 13:16:26;;;;;;;4.88;3.10;;;22.20;88.30;;;;;;5033899;28;20471;-65
2022/06/04 13:19:07;;;;;;;5.65;3.60;;;22.10;88.30;;;;;;5033662;28;20040;-65
2022/06/04 13:21:35;;;;;;;6.30;3.85;;;22.10;88.30;;;;;;5032448;28;20112;-65
2022/06/04 13:24:19;;;;;;;4.85;2.97;;;22.10;87.70;;;;;;5033866;28;20063;-65
2022/06/04 13:26:56;;;;;;;4.93;3.17;;;22.00;88.60;;;;;;5033234;28;20041;-65
2022/06/04 13:29:23;;;;;;;4.18;3.20;;;22.00;89.60;;;;;;5033324;28;20021;-65
2022/06/04 13:31:53;;;;;;;3.95;3.22;;;22.00;88.80;;;;;;5033622;28;20029;-65
2022/06/04 13:34:25;;;;;;;4.70;3.30;;;22.00;88.20;;;;;;5033285;28;20387;-65
2022/06/04 13:37:08;;;;;;;5.05;3.10;;;22.00;88.40;;;;;;5033041;28;20033;-65
2022/06/04 13:39:36;;;;;;;5.32;3.92;;;22.00;88.00;;;;;;5033170;28;20037;-65